createdAt,value
2019-04-06T00:00:43.542Z,81.10
2019-04-06T00:03:12.704Z,81.54
2019-04-06T00:05:42.183Z,82.07
2019-04-06T00:08:11.945Z,81.83
2019-04-06T00:10:41.335Z,82.46
2019-04-06T00:13:10.413Z,83.12
2019-04-06T00:15:39.882Z,82.93
2019-04-06T00:18:08.997Z,82.86
2019-04-06T00:20:38.086Z,82.87
2019-04-06T00:23:07.194Z,82.74
2019-04-06T00:25:44.158Z,83.03
2019-04-06T00:28:07.416Z,83.20
2019-04-06T00:30:44.855Z,83.25
2019-04-06T00:33:16.100Z,83.20
2019-04-06T00:35:45.496Z,83.22
2019-04-06T00:38:14.668Z,82.93
2019-04-06T00:40:43.832Z,82.85
2019-04-06T00:43:12.938Z,82.93
2019-04-06T00:45:42.458Z,82.92
2019-04-06T00:48:12.044Z,83.29
2019-04-06T00:50:41.193Z,82.67
2019-04-06T00:53:10.330Z,82.35
2019-04-06T00:55:39.430Z,82.36
2019-04-06T00:58:08.500Z,82.62
2019-04-06T01:00:37.591Z,82.64
2019-04-06T01:03:06.684Z,82.81
2019-04-06T01:05:35.772Z,83.29
2019-04-06T01:08:04.939Z,83.25
2019-04-06T01:10:34.076Z,82.98
2019-04-06T01:13:03.178Z,83.42
2019-04-06T01:15:32.302Z,83.69
2019-04-06T01:18:01.426Z,83.88
2019-04-06T01:20:30.892Z,84.02
2019-04-06T01:23:00.001Z,84.15
2019-04-06T01:25:29.107Z,83.91
2019-04-06T01:27:58.603Z,83.76
2019-04-06T01:30:27.749Z,84.04
2019-04-06T01:32:57.149Z,83.31
2019-04-06T01:35:26.226Z,83.92
2019-04-06T01:37:55.392Z,83.43
2019-04-06T01:40:24.620Z,83.07
2019-04-06T01:42:53.744Z,83.15
2019-04-06T01:45:22.832Z,82.92
2019-04-06T01:47:52.654Z,83.34
2019-04-06T01:50:22.148Z,83.19
2019-04-06T01:52:51.225Z,83.37
2019-04-06T01:55:20.312Z,82.79
2019-04-06T01:57:49.414Z,83.21
2019-04-06T02:00:18.739Z,83.43
2019-04-06T02:02:50.348Z,83.60
2019-04-06T02:05:19.823Z,83.34
2019-04-06T02:07:49.865Z,83.41
2019-04-06T02:10:19.150Z,83.63
2019-04-06T02:12:48.244Z,83.63
2019-04-06T02:15:17.325Z,83.31
2019-04-06T02:17:46.389Z,83.35
2019-04-06T02:20:15.482Z,83.71
2019-04-06T02:22:44.529Z,83.42
2019-04-06T02:25:14.297Z,83.65
2019-04-06T02:27:43.376Z,83.31
2019-04-06T02:30:25.875Z,83.11
2019-04-06T02:33:20.338Z,83.66
2019-04-06T02:36:14.326Z,83.76
2019-04-06T02:39:00.697Z,84.16
2019-04-06T02:41:46.584Z,84.10
2019-04-06T02:44:15.754Z,84.30
2019-04-06T02:46:45.114Z,84.09
2019-04-06T02:49:14.230Z,83.99
2019-04-06T02:51:43.668Z,84.58
2019-04-06T02:54:13.138Z,84.61
2019-04-06T02:56:46.478Z,84.61
2019-04-06T02:59:12.947Z,84.89
2019-04-06T03:01:42.461Z,84.68
2019-04-06T03:04:11.554Z,84.60
2019-04-06T03:06:41.454Z,84.98
2019-04-06T03:09:12.017Z,84.31
2019-04-06T03:11:41.644Z,84.79
2019-04-06T03:14:11.062Z,84.21
2019-04-06T03:16:40.121Z,84.37
2019-04-06T03:19:09.224Z,84.45
2019-04-06T03:21:38.310Z,84.44
2019-04-06T03:24:07.357Z,84.12
2019-04-06T03:26:36.518Z,83.84
2019-04-06T03:29:05.690Z,83.91
2019-04-06T03:31:35.173Z,83.96
2019-04-06T03:34:04.302Z,84.28
2019-04-06T03:36:33.745Z,84.00
2019-04-06T03:39:04.859Z,84.25
2019-04-06T03:41:34.280Z,84.19
2019-04-06T03:44:04.216Z,84.15
2019-04-06T03:46:34.043Z,84.65
2019-04-06T03:49:03.431Z,84.22
2019-04-06T03:51:32.581Z,84.48
2019-04-06T03:54:01.655Z,84.35
2019-04-06T03:56:31.127Z,84.72
2019-04-06T03:59:00.229Z,85.14
2019-04-06T04:01:29.608Z,85.12
2019-04-06T04:03:59.106Z,85.08
2019-04-06T04:06:28.629Z,84.92
2019-04-06T04:08:57.754Z,85.24
2019-04-06T04:11:26.800Z,85.69
2019-04-06T04:13:56.227Z,85.49
2019-04-06T04:16:25.339Z,85.36
2019-04-06T04:18:54.368Z,85.18
2019-04-06T04:21:23.870Z,85.32
2019-04-06T04:23:53.360Z,85.25
2019-04-06T04:26:23.345Z,85.72
2019-04-06T04:28:52.555Z,85.73
2019-04-06T04:31:21.861Z,85.87
2019-04-06T04:33:50.857Z,85.83
2019-04-06T04:36:20.180Z,85.96
2019-04-06T04:38:49.270Z,85.54
2019-04-06T04:41:19.047Z,85.98
2019-04-06T04:43:48.096Z,85.98
2019-04-06T04:46:17.153Z,86.39
2019-04-06T04:48:46.311Z,86.17
2019-04-06T04:51:15.461Z,86.54
2019-04-06T04:53:44.894Z,86.40
2019-04-06T04:56:13.985Z,86.06
2019-04-06T04:58:43.103Z,86.45
2019-04-06T05:01:12.128Z,86.41
2019-04-06T05:03:41.162Z,86.80
2019-04-06T05:06:10.250Z,86.98
2019-04-06T05:08:39.320Z,87.14
2019-04-06T05:11:08.537Z,87.10
2019-04-06T05:13:37.718Z,87.17
2019-04-06T05:16:11.270Z,87.38
2019-04-06T05:18:41.398Z,87.47
2019-04-06T05:21:11.146Z,87.69
2019-04-06T05:23:40.170Z,87.56
2019-04-06T05:26:09.754Z,87.87
2019-04-06T05:28:38.813Z,87.88
2019-04-06T05:31:07.846Z,88.03
2019-04-06T05:33:36.969Z,88.06
2019-04-06T05:36:06.195Z,88.33
2019-04-06T05:38:35.537Z,88.26
2019-04-06T05:41:05.187Z,88.43
2019-04-06T05:43:34.267Z,88.69
2019-04-06T05:46:03.487Z,88.52
2019-04-06T05:48:32.892Z,88.31
2019-04-06T05:51:01.930Z,88.30
2019-04-06T05:53:30.954Z,87.89
2019-04-06T05:56:00.625Z,87.83
2019-04-06T05:58:30.040Z,87.64
2019-04-06T06:00:59.029Z,87.54
2019-04-06T06:03:28.380Z,87.91
2019-04-06T06:05:57.430Z,87.51
2019-04-06T06:08:26.467Z,87.00
2019-04-06T06:10:55.878Z,86.94
2019-04-06T06:13:25.249Z,87.07
2019-04-06T06:15:54.239Z,86.61
2019-04-06T06:18:27.331Z,87.09
2019-04-06T06:20:54.416Z,86.82
2019-04-06T06:23:23.521Z,86.93
2019-04-06T06:25:52.682Z,86.83
2019-04-06T06:28:21.750Z,86.92
2019-04-06T06:30:51.095Z,86.87
2019-04-06T06:33:20.137Z,85.94
2019-04-06T06:35:49.681Z,86.05
2019-04-06T06:38:18.746Z,86.23
2019-04-06T06:40:47.833Z,86.38
2019-04-06T06:43:17.481Z,85.97
2019-04-06T06:45:46.511Z,85.81
2019-04-06T06:48:15.568Z,85.09
2019-04-06T06:50:44.631Z,84.65
2019-04-06T06:53:13.829Z,85.07
2019-04-06T06:55:42.837Z,85.41
2019-04-06T06:58:12.198Z,84.99
2019-04-06T07:00:41.218Z,85.27
2019-04-06T07:03:10.361Z,84.85
2019-04-06T07:05:40.434Z,84.64
2019-04-06T07:08:09.800Z,84.40
2019-04-06T07:10:39.376Z,83.45
2019-04-06T07:13:08.496Z,82.62
2019-04-06T07:15:43.407Z,81.82
2019-04-06T07:18:13.046Z,79.29
2019-04-06T07:20:42.514Z,79.85
2019-04-06T07:23:11.763Z,79.40
2019-04-06T07:25:43.643Z,79.33
2019-04-06T07:28:13.300Z,79.05
2019-04-06T07:30:42.366Z,77.97
2019-04-06T07:33:11.747Z,77.65
2019-04-06T07:35:40.849Z,77.46
2019-04-06T07:38:11.241Z,76.56
2019-04-06T07:40:40.627Z,76.17
2019-04-06T07:43:09.752Z,76.68
2019-04-06T07:45:39.219Z,75.54
2019-04-06T07:48:11.110Z,75.63
2019-04-06T07:50:40.625Z,75.45
2019-04-06T07:53:09.821Z,73.69
2019-04-06T07:55:38.770Z,73.48
2019-04-06T07:58:08.091Z,73.65
2019-04-06T08:00:37.514Z,74.16
2019-04-06T08:03:06.550Z,73.99
2019-04-06T08:05:35.674Z,74.19
2019-04-06T08:08:05.033Z,73.94
2019-04-06T08:10:34.145Z,73.77
2019-04-06T08:13:03.630Z,73.94
2019-04-06T08:15:32.656Z,73.16
2019-04-06T08:18:01.823Z,72.92
2019-04-06T08:20:31.223Z,72.64
2019-04-06T08:23:00.589Z,66.75
2019-04-06T08:25:29.946Z,69.41
2019-04-06T08:27:59.640Z,69.74
2019-04-06T08:30:28.830Z,69.98
2019-04-06T08:32:57.933Z,69.27
2019-04-06T08:35:27.500Z,67.63
2019-04-06T08:37:56.823Z,67.63
2019-04-06T08:40:25.871Z,68.16
2019-04-06T08:42:54.898Z,67.31
2019-04-06T08:45:24.065Z,66.54
2019-04-06T08:47:53.133Z,65.77
2019-04-06T08:50:24.827Z,66.01
2019-04-06T08:52:53.887Z,64.29
2019-04-06T08:55:22.974Z,62.90
2019-04-06T08:57:52.538Z,60.07
2019-04-06T09:00:21.853Z,60.22
2019-04-06T09:02:50.998Z,59.58
2019-04-06T09:05:20.342Z,59.96
2019-04-06T09:07:49.413Z,59.65
2019-04-06T09:10:18.772Z,59.30
2019-04-06T09:12:47.863Z,57.66
2019-04-06T09:15:18.046Z,55.45
2019-04-06T09:17:47.455Z,51.97
2019-04-06T09:20:16.542Z,52.46
2019-04-06T09:22:45.885Z,53.56
2019-04-06T09:25:15.161Z,51.00
2019-04-06T09:27:44.376Z,52.39
2019-04-06T09:30:13.811Z,50.59
2019-04-06T09:32:43.221Z,50.36
2019-04-06T09:35:12.690Z,50.17
2019-04-06T09:37:41.985Z,49.47
2019-04-06T09:40:12.506Z,48.79
2019-04-06T09:42:41.932Z,50.33
2019-04-06T09:45:41.318Z,51.84
2019-04-06T09:48:34.733Z,53.12
2019-04-06T09:51:26.373Z,54.13
2019-04-06T09:54:13.992Z,54.25
2019-04-06T09:56:50.377Z,54.98
2019-04-06T09:59:48.392Z,57.39
2019-04-06T10:02:36.588Z,55.60
2019-04-06T10:05:28.621Z,56.39
2019-04-06T10:08:15.067Z,57.81
2019-04-06T10:11:08.985Z,59.37
2019-04-06T10:14:00.205Z,61.10
2019-04-06T10:16:38.738Z,60.71
2019-04-06T10:19:41.722Z,59.79
2019-04-06T10:22:29.865Z,60.32
2019-04-06T10:25:16.976Z,60.43
2019-04-06T10:28:03.750Z,59.91
2019-04-06T10:30:43.416Z,60.50
2019-04-06T10:33:31.576Z,61.23
2019-04-06T10:36:22.621Z,60.67
2019-04-06T10:39:28.892Z,59.76
2019-04-06T10:42:04.723Z,60.48
2019-04-06T10:45:02.603Z,59.41
2019-04-06T10:48:00.106Z,58.82
2019-04-06T10:50:46.019Z,59.54
2019-04-06T10:53:32.547Z,59.48
2019-04-06T10:56:20.803Z,60.58
2019-04-06T10:59:24.160Z,59.99
2019-04-06T11:02:24.093Z,61.20
2019-04-06T11:05:02.696Z,61.26
2019-04-06T11:07:49.742Z,59.42
2019-04-06T11:10:47.494Z,57.26
2019-04-06T11:13:35.498Z,57.35
2019-04-06T11:16:26.413Z,56.60
2019-04-06T11:19:28.962Z,55.27
2019-04-06T11:22:14.266Z,54.02
2019-04-06T11:24:58.853Z,53.31
2019-04-06T11:27:50.404Z,52.85
2019-04-06T11:30:41.632Z,51.17
2019-04-06T11:33:32.652Z,51.74
2019-04-06T11:36:14.818Z,52.50
2019-04-06T11:39:15.055Z,52.65
2019-04-06T11:42:05.850Z,50.51
2019-04-06T11:44:57.158Z,51.82
2019-04-06T11:47:38.192Z,53.36
2019-04-06T11:50:23.657Z,51.82
2019-04-06T11:53:10.853Z,50.32
2019-04-06T11:55:58.902Z,48.58
2019-04-06T11:58:38.031Z,47.93
2019-04-06T12:01:32.444Z,45.62
2019-04-06T12:04:20.692Z,44.54
2019-04-06T12:07:04.992Z,43.70
2019-04-06T12:09:56.119Z,43.31
2019-04-06T12:12:56.608Z,45.13
2019-04-06T12:15:47.837Z,45.13
2019-04-06T12:18:36.138Z,45.69
2019-04-06T12:21:39.511Z,49.24
2019-04-06T12:24:19.506Z,49.40
2019-04-06T12:27:06.279Z,50.36
2019-04-06T12:29:57.214Z,51.65
2019-04-06T12:32:40.574Z,52.17
2019-04-06T12:35:27.192Z,50.22
2019-04-06T12:38:15.261Z,47.30
2019-04-06T12:41:03.518Z,47.68
2019-04-06T12:43:55.168Z,48.51
2019-04-06T12:46:42.452Z,48.55
2019-04-06T12:49:30.488Z,50.31
2019-04-06T12:52:24.809Z,48.89
2019-04-06T12:55:08.375Z,47.21
2019-04-06T12:57:56.468Z,48.00
2019-04-06T13:00:52.613Z,48.13
2019-04-06T13:03:46.512Z,46.77
2019-04-06T13:06:44.154Z,48.32
2019-04-06T13:09:30.935Z,48.99
2019-04-06T13:12:34.685Z,49.38
2019-04-06T13:15:19.117Z,48.57
2019-04-06T13:18:05.976Z,49.90
2019-04-06T13:20:50.670Z,47.95
2019-04-06T13:23:50.878Z,51.28
2019-04-06T13:26:45.251Z,51.44
2019-04-06T13:29:33.296Z,53.06
2019-04-06T13:32:21.656Z,52.64
2019-04-06T13:35:12.734Z,51.57
2019-04-06T13:38:02.304Z,49.25
2019-04-06T13:40:55.321Z,47.46
2019-04-06T13:43:38.364Z,46.90
2019-04-06T13:46:32.499Z,46.98
2019-04-06T13:49:10.657Z,48.18
2019-04-06T13:51:56.081Z,48.29
2019-04-06T13:54:48.196Z,49.48
2019-04-06T13:57:42.441Z,49.42
2019-04-06T14:00:26.232Z,49.39
2019-04-06T14:03:02.153Z,49.47
2019-04-06T14:05:58.580Z,49.53
2019-04-06T14:08:49.315Z,49.51
2019-04-06T14:11:34.646Z,50.27
2019-04-06T14:14:30.262Z,50.07
2019-04-06T14:17:21.329Z,48.39
2019-04-06T14:20:08.368Z,47.84
2019-04-06T14:22:53.032Z,48.06
2019-04-06T14:25:32.977Z,46.82
2019-04-06T14:28:24.197Z,47.76
2019-04-06T14:31:25.560Z,47.28
2019-04-06T14:33:59.459Z,48.42
2019-04-06T14:36:49.592Z,50.07
2019-04-06T14:39:26.168Z,48.99
2019-04-06T14:42:20.157Z,50.49
2019-04-06T14:45:11.364Z,46.93
2019-04-06T14:48:02.700Z,47.57
2019-04-06T14:50:53.425Z,47.40
2019-04-06T14:53:57.131Z,48.40
2019-04-06T14:56:46.771Z,46.88
2019-04-06T14:59:36.683Z,46.58
2019-04-06T15:02:12.107Z,45.88
2019-04-06T15:04:52.853Z,46.67
2019-04-06T15:07:30.825Z,46.63
2019-04-06T15:10:09.752Z,46.50
2019-04-06T15:12:59.770Z,47.05
2019-04-06T15:15:54.289Z,47.42
2019-04-06T15:18:49.097Z,51.53
2019-04-06T15:21:40.491Z,50.16
2019-04-06T15:24:29.247Z,48.15
2019-04-06T15:27:26.151Z,48.52
2019-04-06T15:30:08.933Z,50.31
2019-04-06T15:32:54.540Z,50.26
2019-04-06T15:35:50.880Z,50.74
2019-04-06T15:38:39.488Z,51.44
2019-04-06T15:41:30.386Z,50.95
2019-04-06T15:44:10.489Z,51.13
2019-04-06T15:47:07.320Z,50.80
2019-04-06T15:50:05.547Z,49.87
2019-04-06T15:52:46.356Z,49.36
2019-04-06T15:55:34.868Z,50.63
2019-04-06T15:58:09.492Z,49.76
2019-04-06T16:00:56.596Z,50.95
2019-04-06T16:03:43.147Z,51.40
2019-04-06T16:06:31.177Z,52.20
2019-04-06T16:09:37.286Z,51.87
2019-04-06T16:12:37.567Z,51.15
2019-04-06T16:15:27.811Z,52.15
2019-04-06T16:18:19.942Z,51.47
2019-04-06T16:21:07.467Z,51.23
2019-04-06T16:23:45.735Z,51.95
2019-04-06T16:26:34.322Z,51.34
2019-04-06T16:29:30.390Z,51.48
2019-04-06T16:32:33.474Z,51.98
2019-04-06T16:35:21.177Z,52.03
2019-04-06T16:38:08.058Z,51.90
2019-04-06T16:41:11.235Z,51.29
2019-04-06T16:44:02.319Z,51.23
2019-04-06T16:46:49.085Z,50.79
2019-04-06T16:49:46.469Z,49.84
2019-04-06T16:52:33.782Z,50.03
2019-04-06T16:55:27.813Z,50.11
2019-04-06T16:58:14.627Z,51.01
2019-04-06T17:01:05.694Z,49.54
2019-04-06T17:03:47.818Z,49.55
2019-04-06T17:06:31.805Z,49.92
2019-04-06T17:09:15.634Z,49.95
2019-04-06T17:12:02.387Z,49.76
2019-04-06T17:14:51.679Z,51.05
2019-04-06T17:17:31.951Z,51.74
2019-04-06T17:20:20.522Z,52.02
2019-04-06T17:23:07.404Z,53.14
2019-04-06T17:25:54.195Z,54.13
2019-04-06T17:28:48.382Z,52.72
2019-04-06T17:31:34.827Z,53.67
2019-04-06T17:34:10.164Z,53.37
2019-04-06T17:37:07.414Z,52.52
2019-04-06T17:39:58.458Z,53.30
2019-04-06T17:42:47.141Z,54.29
2019-04-06T17:45:41.414Z,54.61
2019-04-06T17:48:28.368Z,55.54
2019-04-06T17:51:09.135Z,56.52
2019-04-06T17:54:04.004Z,56.09
2019-04-06T17:56:54.793Z,56.78
2019-04-06T17:59:36.853Z,57.37
2019-04-06T18:02:27.907Z,59.77
2019-04-06T18:05:14.128Z,60.34
2019-04-06T18:07:53.585Z,60.82
2019-04-06T18:10:39.453Z,61.62
2019-04-06T18:13:36.755Z,61.96
2019-04-06T18:16:06.051Z,62.31
2019-04-06T18:18:35.248Z,63.75
2019-04-06T18:21:05.018Z,64.52
2019-04-06T18:23:34.596Z,64.66
2019-04-06T18:26:03.691Z,64.94
2019-04-06T18:28:33.050Z,66.22
2019-04-06T18:31:08.578Z,66.87
2019-04-06T18:33:38.037Z,67.37
2019-04-06T18:36:07.162Z,67.92
2019-04-06T18:38:40.065Z,68.30
2019-04-06T18:41:10.180Z,68.54
2019-04-06T18:43:39.930Z,69.66
2019-04-06T18:46:08.969Z,69.83
2019-04-06T18:48:38.300Z,69.58
2019-04-06T18:51:07.656Z,70.08
2019-04-06T18:53:37.106Z,70.70
2019-04-06T18:56:06.657Z,70.50
2019-04-06T18:58:36.745Z,70.49
2019-04-06T19:01:06.473Z,69.75
2019-04-06T19:03:35.700Z,70.42
2019-04-06T19:06:05.038Z,70.68
2019-04-06T19:08:36.543Z,70.58
2019-04-06T19:11:05.761Z,71.14
2019-04-06T19:13:35.424Z,71.25
2019-04-06T19:16:04.967Z,71.88
2019-04-06T19:18:34.027Z,72.07
2019-04-06T19:21:03.129Z,72.10
2019-04-06T19:23:32.252Z,72.08
2019-04-06T19:26:01.868Z,72.45
2019-04-06T19:28:32.274Z,72.48
2019-04-06T19:31:01.311Z,72.65
2019-04-06T19:33:30.553Z,73.41
2019-04-06T19:35:59.941Z,73.22
2019-04-06T19:38:28.997Z,73.30
2019-04-06T19:40:58.629Z,72.83
2019-04-06T19:43:27.674Z,73.15
2019-04-06T19:45:57.040Z,73.65
2019-04-06T19:48:26.100Z,74.15
2019-04-06T19:50:55.166Z,75.39
2019-04-06T19:53:24.917Z,75.23
2019-04-06T19:55:54.722Z,75.19
2019-04-06T19:58:23.816Z,74.76
2019-04-06T20:00:53.600Z,74.02
2019-04-06T20:03:33.691Z,74.53
2019-04-06T20:05:53.573Z,74.75
2019-04-06T20:08:23.074Z,75.41
2019-04-06T20:10:53.140Z,75.84
2019-04-06T20:13:22.318Z,76.93
2019-04-06T20:15:51.807Z,76.93
2019-04-06T20:18:21.405Z,76.71
2019-04-06T20:20:51.078Z,76.71
2019-04-06T20:23:20.736Z,77.23
2019-04-06T20:25:50.291Z,77.30
2019-04-06T20:28:19.615Z,77.30
2019-04-06T20:30:48.780Z,77.43
2019-04-06T20:33:19.915Z,77.62
2019-04-06T20:35:48.834Z,77.82
2019-04-06T20:38:17.978Z,77.95
2019-04-06T20:40:47.171Z,77.97
2019-04-06T20:43:16.397Z,77.05
2019-04-06T20:45:46.525Z,76.96
2019-04-06T20:48:15.651Z,77.28
2019-04-06T20:50:45.094Z,77.89
2019-04-06T20:53:14.610Z,77.65
2019-04-06T20:55:44.199Z,78.16
2019-04-06T20:58:13.850Z,77.84
2019-04-06T21:00:43.710Z,78.05
2019-04-06T21:03:12.790Z,78.40
2019-04-06T21:05:42.547Z,77.85
2019-04-06T21:08:12.141Z,78.04
2019-04-06T21:10:41.292Z,77.98
2019-04-06T21:13:11.173Z,78.77
2019-04-06T21:15:40.960Z,77.06
2019-04-06T21:18:10.033Z,77.80
2019-04-06T21:20:39.370Z,77.52
2019-04-06T21:23:08.733Z,78.46
2019-04-06T21:25:38.704Z,78.69
2019-04-06T21:28:07.882Z,79.02
2019-04-06T21:30:37.696Z,78.62
2019-04-06T21:33:07.932Z,79.11
2019-04-06T21:35:37.072Z,79.21
2019-04-06T21:38:06.653Z,79.33
2019-04-06T21:40:35.812Z,79.91
2019-04-06T21:43:04.852Z,80.00
2019-04-06T21:45:34.428Z,80.21
2019-04-06T21:48:04.160Z,79.87
2019-04-06T21:50:34.212Z,79.86
2019-04-06T21:53:03.731Z,79.96
2019-04-06T21:55:33.058Z,80.36
2019-04-06T21:58:02.986Z,80.51
2019-04-06T22:00:52.583Z,80.78
2019-04-06T22:03:22.312Z,81.21
2019-04-06T22:05:52.003Z,81.81
2019-04-06T22:08:21.626Z,81.75
2019-04-06T22:10:50.733Z,82.11
2019-04-06T22:13:20.676Z,82.15
2019-04-06T22:15:49.800Z,81.29
2019-04-06T22:18:19.332Z,81.20
2019-04-06T22:20:48.900Z,81.22
2019-04-06T22:23:18.555Z,81.34
2019-04-06T22:25:47.731Z,81.51
2019-04-06T22:28:16.792Z,81.03
2019-04-06T22:30:45.975Z,81.38
2019-04-06T22:33:14.956Z,82.68
2019-04-06T22:35:44.294Z,80.64
2019-04-06T22:38:13.468Z,80.45
2019-04-06T22:40:43.140Z,79.70
2019-04-06T22:43:12.352Z,79.54
2019-04-06T22:45:41.542Z,80.36
2019-04-06T22:48:10.642Z,79.67
2019-04-06T22:50:39.839Z,80.82
2019-04-06T22:53:09.383Z,81.60
2019-04-06T22:55:38.988Z,81.80
2019-04-06T22:58:08.214Z,81.95
2019-04-06T23:00:40.732Z,82.01
2019-04-06T23:03:27.558Z,82.86
2019-04-06T23:05:59.677Z,82.66
2019-04-06T23:08:29.068Z,83.07
2019-04-06T23:10:58.151Z,82.90
2019-04-06T23:13:27.923Z,82.93
2019-04-06T23:15:57.677Z,83.36
2019-04-06T23:18:27.469Z,83.56
2019-04-06T23:20:56.759Z,83.52
2019-04-06T23:23:25.869Z,83.66
2019-04-06T23:25:55.263Z,83.59
2019-04-06T23:28:24.419Z,84.05
2019-04-06T23:30:53.582Z,84.32
2019-04-06T23:33:22.794Z,84.42
2019-04-06T23:35:52.213Z,83.66
2019-04-06T23:38:21.760Z,84.17
2019-04-06T23:40:50.814Z,83.97
2019-04-06T23:43:19.858Z,82.94
2019-04-06T23:45:48.855Z,83.23
2019-04-06T23:48:18.833Z,82.72
2019-04-06T23:50:48.360Z,82.85
2019-04-06T23:53:18.110Z,83.07
2019-04-06T23:55:47.816Z,82.98
2019-04-06T23:58:17.777Z,83.46
